Impacts TAF Board
For situational awareness. Not to be used for flight planning purposes.
IDs:

KPIT - Pittsburgh Intl, PA, US

Issued at 1514 UTC 20 Jan 2019
Updated at 1645 UTC 20 Jan 2019
Potential Impact None Slight Moderate High
Time1551Z 20/17Z 20/18Z 20/19Z 20/20Z 20/21Z 20/22Z 20/23Z 21/00Z 21/01Z 21/02Z 21/03Z 21/04Z 21/05Z>>
Type OBS PRVL PRVL PRVL PRVL PRVL PRVL PRVL PRVL PRVL PRVL PRVL PRVL PRVL
VIS 2 2 2 2 >6 >6 >6 >6 >6 >6 >6 >6 >6 >6
CIG 19 15 15 15 35 35 35 35 35 35 35 35 35 35
Cover OVC OVC OVC OVC BKN BKN BKN BKN BKN BKN BKN BKN BKN BKN
FltCat IFR IFR IFR IFR VFR VFR VFR VFR VFR VFR VFR VFR VFR VFR
WX -SN BLSN BR -SN BLSN -SN BLSN -SN BLSN -- -- -- -- -- -- -- -- -- --
WDir 320 320 320 320 320 320 320 320 320 320 320 320 320 320
WSpd 17 18 18 18 15 15 15 15 15 15 15 15 15 15
WGst -- 27 27 27 29 29 29 29 29 29 29 29 29 29
Raw TAF
KPIT 201514Z 2015/2118 32018G27KT 2SM -SN BLSN OVC015
  TEMPO 2015/2017 4SM -SN BLSN
  FM202000 32015G29KT P6SM BKN035
  FM210700 32015G22KT P6SM BKN025


Raw METAR
KPIT 201551Z 32017KT 2SM -SN BLSN BR BKN019 OVC024 M09/M11 A2984 RMK AO2 PK WND 32026/1522 SLP126 P0000 T10891111
KPIT 201451Z 32015KT 2SM -SN BLSN BR BKN015 OVC022 M09/M11 A2980 RMK AO2 SLP114 P0000 60000 T10891111 51057
KPIT 201440Z 32016KT 1 1/2SM -SN BLSN BR OVC016 M09/M11 A2979 RMK AO2 P0000 T10891106 $
KPIT 201351Z 32013KT 2 1/2SM -SN BLSN OVC016 M09/M11 A2976 RMK AO2 PK WND 30029/1310 SLP101 P0000 T10941111 $

METAR Board
Radar Display
Forecast Discussion
For situational awareness. Not to be used for flight planning purposes.